createdAt,value
2018-12-12T00:01:55.436Z,29.37
2018-12-12T00:04:22.983Z,23.73
2018-12-12T00:06:50.691Z,27.97
2018-12-12T00:09:18.248Z,29.65
2018-12-12T00:11:45.772Z,30.95
2018-12-12T00:14:13.327Z,28.70
2018-12-12T00:16:40.857Z,27.60
2018-12-12T00:19:08.418Z,29.00
2018-12-12T00:21:35.943Z,29.37
2018-12-12T00:24:03.499Z,30.57
2018-12-12T00:26:31.028Z,26.62
2018-12-12T00:28:58.591Z,31.93
2018-12-12T00:31:26.119Z,30.50
2018-12-12T00:33:53.672Z,29.40
2018-12-12T00:36:21.200Z,31.02
2018-12-12T00:38:48.759Z,29.95
2018-12-12T00:41:16.291Z,25.70
2018-12-12T00:43:43.856Z,27.73
2018-12-12T00:46:11.375Z,27.37
2018-12-12T00:48:38.923Z,26.50
2018-12-12T00:51:06.445Z,24.97
2018-12-12T00:53:34.000Z,30.80
2018-12-12T00:56:01.523Z,26.40
2018-12-12T00:58:29.071Z,28.27
2018-12-12T01:00:56.595Z,30.57
2018-12-12T01:03:24.121Z,27.53
2018-12-12T01:05:51.667Z,30.43
2018-12-12T01:08:19.187Z,29.57
2018-12-12T01:10:48.720Z,27.77
2018-12-12T01:13:16.243Z,30.80
2018-12-12T01:15:43.800Z,29.30
2018-12-12T01:18:11.323Z,28.73
2018-12-12T01:20:38.875Z,29.20
2018-12-12T01:23:06.409Z,29.63
2018-12-12T01:25:34.049Z,26.87
2018-12-12T01:28:01.579Z,25.23
2018-12-12T01:30:29.131Z,26.23
2018-12-12T01:32:56.654Z,24.93
2018-12-12T01:35:24.202Z,27.35
2018-12-12T01:37:51.725Z,27.83
2018-12-12T01:40:19.270Z,24.43
2018-12-12T01:42:46.801Z,28.77
2018-12-12T01:45:14.351Z,25.60
2018-12-12T01:47:41.871Z,31.73
2018-12-12T01:50:09.411Z,32.90
2018-12-12T01:52:36.945Z,39.45
2018-12-12T01:55:04.566Z,35.27
2018-12-12T01:57:32.082Z,36.27
2018-12-12T01:59:59.635Z,42.43
2018-12-12T02:02:27.163Z,32.08
2018-12-12T02:04:54.723Z,37.40
2018-12-12T02:07:22.251Z,38.73
2018-12-12T02:09:49.808Z,36.70
2018-12-12T02:12:17.335Z,34.65
2018-12-12T02:14:44.883Z,35.48
2018-12-12T02:17:12.412Z,41.90
2018-12-12T02:19:40.051Z,36.70
2018-12-12T02:22:07.589Z,38.17
2018-12-12T02:24:35.139Z,35.28
2018-12-12T02:27:02.664Z,41.28
2018-12-12T02:29:30.234Z,33.05
2018-12-12T02:31:57.760Z,31.37
2018-12-12T02:34:25.290Z,31.43
2018-12-12T02:36:52.849Z,29.90
2018-12-12T02:39:20.387Z,27.40
2018-12-12T02:41:47.939Z,32.43
2018-12-12T02:44:15.468Z,33.13
2018-12-12T02:46:43.027Z,27.97
2018-12-12T02:49:10.557Z,27.15
2018-12-12T02:51:38.119Z,31.25
2018-12-12T02:54:05.642Z,28.52
2018-12-12T02:56:33.232Z,28.63
2018-12-12T02:59:00.832Z,31.77
2018-12-12T03:01:28.393Z,31.35
2018-12-12T03:03:56.405Z,29.02
2018-12-12T03:06:23.970Z,29.23
2018-12-12T03:08:51.498Z,27.83
2018-12-12T03:11:21.761Z,32.00
2018-12-12T03:13:49.290Z,33.08
2018-12-12T03:16:16.845Z,31.65
2018-12-12T03:18:44.375Z,32.95
2018-12-12T03:21:11.934Z,35.25
2018-12-12T03:23:39.468Z,34.00
2018-12-12T03:26:07.023Z,39.88
2018-12-12T03:28:34.550Z,37.38
2018-12-12T03:31:02.108Z,38.60
2018-12-12T03:33:29.643Z,43.80
2018-12-12T03:35:57.264Z,45.40
2018-12-12T03:38:24.853Z,42.23
2018-12-12T03:40:52.674Z,41.00
2018-12-12T03:43:20.208Z,42.00
2018-12-12T03:45:47.742Z,44.10
2018-12-12T03:48:15.298Z,36.40
2018-12-12T03:50:42.827Z,49.10
2018-12-12T03:53:10.375Z,59.57
2018-12-12T03:55:37.904Z,69.70
2018-12-12T03:58:05.453Z,40.90
2018-12-12T04:00:32.979Z,36.83
2018-12-12T04:03:00.552Z,36.60
2018-12-12T04:05:28.087Z,39.50
2018-12-12T04:07:55.644Z,38.38
2018-12-12T04:10:23.164Z,41.77
2018-12-12T04:12:50.720Z,41.77
2018-12-12T04:15:18.330Z,47.35
2018-12-12T04:17:45.889Z,42.65
2018-12-12T04:20:13.419Z,42.35
2018-12-12T04:22:40.982Z,41.13
2018-12-12T04:25:09.093Z,35.78
2018-12-12T04:27:36.651Z,33.83
2018-12-12T04:30:06.044Z,40.98
2018-12-12T04:32:33.595Z,53.78
2018-12-12T04:35:01.118Z,35.90
2018-12-12T04:37:28.681Z,54.08
2018-12-12T04:39:56.225Z,95.07
2018-12-12T04:42:23.785Z,185.85
2018-12-12T04:44:51.316Z,112.10
2018-12-12T04:47:18.869Z,96.70
2018-12-12T04:49:46.400Z,57.93
2018-12-12T04:52:13.949Z,63.15
2018-12-12T04:54:41.475Z,76.37
2018-12-12T04:57:09.032Z,73.97
2018-12-12T04:59:36.561Z,125.33
2018-12-12T05:02:04.111Z,62.45
2018-12-12T05:04:31.637Z,63.87
2018-12-12T05:06:59.215Z,63.58
2018-12-12T05:09:26.881Z,84.20
2018-12-12T05:11:54.408Z,55.98
2018-12-12T05:14:21.963Z,56.08
2018-12-12T05:16:49.491Z,47.13
2018-12-12T05:19:17.046Z,42.58
2018-12-12T05:21:44.656Z,63.48
2018-12-12T05:24:12.208Z,53.90
2018-12-12T05:26:39.741Z,54.45
2018-12-12T05:29:07.291Z,82.78
2018-12-12T05:31:34.816Z,69.40
2018-12-12T05:34:02.365Z,87.42
2018-12-12T05:36:29.900Z,218.67
2018-12-12T05:38:57.456Z,124.60
2018-12-12T05:41:24.979Z,94.52
2018-12-12T05:43:57.601Z,102.05
2018-12-12T05:46:22.182Z,122.25
2018-12-12T05:48:49.740Z,167.93
2018-12-12T05:51:17.268Z,80.15
2018-12-12T05:53:44.820Z,70.17
2018-12-12T05:56:14.305Z,75.60
2018-12-12T05:58:41.923Z,100.15
2018-12-12T06:01:09.472Z,81.45
2018-12-12T06:03:37.032Z,127.07
2018-12-12T06:06:04.557Z,74.80
2018-12-12T06:08:32.113Z,89.40
2018-12-12T06:10:59.766Z,260.57
2018-12-12T06:13:27.311Z,212.38
2018-12-12T06:15:54.836Z,185.80
2018-12-12T06:18:22.355Z,72.15
2018-12-12T06:20:49.908Z,72.45
2018-12-12T06:23:17.436Z,66.20
2018-12-12T06:25:44.991Z,147.93
2018-12-12T06:28:12.526Z,108.60
2018-12-12T06:30:40.074Z,92.17
2018-12-12T06:33:07.600Z,115.70
2018-12-12T06:35:35.155Z,128.90
2018-12-12T06:38:02.678Z,128.53
2018-12-12T06:40:30.235Z,193.82
2018-12-12T06:42:58.914Z,109.83
2018-12-12T06:45:27.424Z,147.47
2018-12-12T06:47:55.123Z,96.20
2018-12-12T06:50:22.680Z,69.17
2018-12-12T06:52:50.210Z,102.85
2018-12-12T06:55:18.578Z,103.00
2018-12-12T06:57:46.264Z,82.17
2018-12-12T07:00:13.895Z,51.58
2018-12-12T07:02:44.905Z,88.12
2018-12-12T07:05:12.623Z,81.75
2018-12-12T07:07:40.466Z,69.60
2018-12-12T07:10:09.975Z,51.53
2018-12-12T07:12:38.891Z,53.90
2018-12-12T07:15:06.534Z,77.95
2018-12-12T07:17:34.155Z,34.98
2018-12-12T07:20:01.722Z,40.50
2018-12-12T07:22:29.371Z,46.98
2018-12-12T07:24:56.943Z,50.83
2018-12-12T07:27:24.745Z,36.85
2018-12-12T07:29:52.403Z,51.98
2018-12-12T07:32:25.868Z,45.40
2018-12-12T07:34:49.515Z,29.70
2018-12-12T07:37:17.076Z,38.20
2018-12-12T07:39:44.628Z,49.98
2018-12-12T07:42:12.235Z,29.72
2018-12-12T07:44:41.312Z,28.52
2018-12-12T07:47:08.921Z,23.38
2018-12-12T07:49:37.190Z,23.60
2018-12-12T07:52:04.744Z,25.32
2018-12-12T07:54:32.277Z,31.12
2018-12-12T07:57:01.460Z,27.13
2018-12-12T07:59:29.000Z,26.70
2018-12-12T08:01:56.561Z,24.18
2018-12-12T08:04:24.086Z,23.67
2018-12-12T08:06:51.676Z,21.52
2018-12-12T08:09:19.204Z,23.18
2018-12-12T08:11:46.759Z,24.32
2018-12-12T08:14:16.001Z,28.12
2018-12-12T08:16:43.583Z,20.95
2018-12-12T08:19:11.116Z,22.37
2018-12-12T08:21:38.694Z,23.00
2018-12-12T08:24:06.225Z,24.67
2018-12-12T08:26:33.775Z,28.73
2018-12-12T08:29:01.300Z,31.27
2018-12-12T08:31:28.891Z,48.02
2018-12-12T08:33:56.915Z,81.95
2018-12-12T08:36:24.715Z,40.98
2018-12-12T08:38:52.235Z,32.17
2018-12-12T08:41:19.851Z,46.02
2018-12-12T08:43:47.393Z,45.30
2018-12-12T08:46:14.942Z,86.02
2018-12-12T08:48:42.471Z,40.50
2018-12-12T08:51:11.220Z,34.63
2018-12-12T08:53:38.783Z,38.20
2018-12-12T08:56:06.649Z,34.78
2018-12-12T08:58:34.174Z,43.60
2018-12-12T09:01:01.739Z,30.95
2018-12-12T09:03:29.278Z,32.85
2018-12-12T09:05:56.843Z,28.27
2018-12-12T09:08:24.408Z,57.75
2018-12-12T09:10:51.979Z,125.90
2018-12-12T09:13:19.542Z,26.27
2018-12-12T09:15:47.157Z,62.55
2018-12-12T09:18:14.728Z,44.30
2018-12-12T09:20:42.252Z,58.08
2018-12-12T09:23:09.823Z,246.30
2018-12-12T09:25:37.477Z,73.52
2018-12-12T09:28:06.323Z,90.95
2018-12-12T09:30:33.932Z,42.35
2018-12-12T09:33:01.492Z,70.62
2018-12-12T09:35:29.023Z,35.68
2018-12-12T09:37:57.467Z,48.02
2018-12-12T09:40:24.991Z,49.23
2018-12-12T09:42:53.827Z,172.07
2018-12-12T09:45:21.904Z,121.95
2018-12-12T09:47:53.347Z,133.57
2018-12-12T09:50:21.168Z,34.55
2018-12-12T09:52:48.734Z,32.55
2018-12-12T09:55:16.253Z,58.45
2018-12-12T09:57:43.895Z,55.52
2018-12-12T10:00:11.426Z,41.95
2018-12-12T10:02:41.151Z,55.12
2018-12-12T10:05:08.904Z,86.55
2018-12-12T10:07:36.461Z,116.42
2018-12-12T10:10:04.363Z,44.35
2018-12-12T10:12:31.929Z,129.00
2018-12-12T10:14:59.493Z,39.23
2018-12-12T10:17:27.069Z,139.95
2018-12-12T10:19:54.608Z,45.15
2018-12-12T10:22:22.751Z,165.62
2018-12-12T10:24:50.280Z,53.52
2018-12-12T10:27:17.863Z,119.77
2018-12-12T10:29:45.408Z,59.90
2018-12-12T10:32:12.963Z,38.85
2018-12-12T10:34:40.499Z,29.55
2018-12-12T10:37:08.085Z,34.08
2018-12-12T10:39:35.645Z,27.48
2018-12-12T10:42:03.184Z,31.50
2018-12-12T10:44:30.759Z,34.80
2018-12-12T10:46:58.296Z,34.00
2018-12-12T10:49:25.901Z,24.18
2018-12-12T10:51:54.112Z,25.30
2018-12-12T10:54:21.731Z,35.92
2018-12-12T10:56:49.256Z,27.22
2018-12-12T10:59:16.811Z,39.83
2018-12-12T11:01:47.626Z,30.47
2018-12-12T11:04:16.651Z,47.83
2018-12-12T11:06:45.128Z,87.60
2018-12-12T11:09:12.740Z,57.47
2018-12-12T11:11:40.279Z,34.08
2018-12-12T11:14:07.847Z,29.90
2018-12-12T11:16:35.377Z,42.70
2018-12-12T11:19:02.962Z,40.63
2018-12-12T11:21:30.508Z,23.60
2018-12-12T11:23:58.067Z,42.40
2018-12-12T11:26:31.501Z,34.57
2018-12-12T11:28:59.327Z,25.33
2018-12-12T11:31:26.856Z,38.07
2018-12-12T11:33:55.716Z,29.93
2018-12-12T11:36:23.236Z,30.03
2018-12-12T11:38:50.813Z,31.77
2018-12-12T11:41:18.823Z,26.13
2018-12-12T11:43:46.375Z,25.93
2018-12-12T11:46:14.936Z,25.00
2018-12-12T11:48:42.491Z,25.40
2018-12-12T11:51:10.115Z,22.50
2018-12-12T11:53:37.664Z,24.97
2018-12-12T11:56:05.181Z,23.77
2018-12-12T11:58:32.731Z,26.13
2018-12-12T12:01:00.272Z,24.23
2018-12-12T12:03:27.858Z,45.60
2018-12-12T12:05:55.388Z,41.03
2018-12-12T12:08:22.959Z,51.17
2018-12-12T12:10:50.600Z,27.23
2018-12-12T12:13:18.881Z,24.53
2018-12-12T12:15:46.412Z,25.73
2018-12-12T12:18:13.992Z,27.80
2018-12-12T12:20:41.515Z,24.63
2018-12-12T12:23:09.108Z,26.40
2018-12-12T12:25:36.755Z,28.63
2018-12-12T12:28:04.279Z,26.80
2018-12-12T12:30:31.835Z,26.47
2018-12-12T12:32:59.371Z,28.07
2018-12-12T12:35:26.942Z,26.37
2018-12-12T12:37:54.468Z,29.23
2018-12-12T12:40:22.027Z,23.37
2018-12-12T12:42:49.556Z,20.23
2018-12-12T12:45:18.288Z,17.37
2018-12-12T12:47:45.822Z,21.33
2018-12-12T12:50:13.371Z,10.17
2018-12-12T12:52:40.892Z,10.30
2018-12-12T12:55:08.903Z,9.87
2018-12-12T12:57:39.761Z,10.87
2018-12-12T13:00:08.098Z,7.53
2018-12-12T13:02:35.663Z,8.90
2018-12-12T13:05:03.602Z,7.33
2018-12-12T13:07:31.122Z,9.87
2018-12-12T13:09:58.703Z,11.90
2018-12-12T13:12:26.222Z,6.10
2018-12-12T13:14:53.772Z,7.10
2018-12-12T13:17:21.295Z,8.27
2018-12-12T13:19:48.869Z,10.83
2018-12-12T13:22:16.419Z,6.80
2018-12-12T13:24:44.080Z,11.80
2018-12-12T13:27:11.607Z,11.57
2018-12-12T13:29:39.150Z,7.87
2018-12-12T13:32:06.879Z,12.10
2018-12-12T13:34:34.432Z,11.37
2018-12-12T13:37:01.956Z,8.93
2018-12-12T13:39:29.576Z,8.07
2018-12-12T13:41:57.103Z,8.40
2018-12-12T13:44:24.652Z,11.10
2018-12-12T13:46:52.175Z,10.40
2018-12-12T13:49:19.810Z,11.97
2018-12-12T13:51:47.335Z,11.97
2018-12-12T13:54:16.253Z,10.33
2018-12-12T13:56:43.848Z,9.13
2018-12-12T13:59:11.419Z,11.07
2018-12-12T14:01:39.000Z,9.97
2018-12-12T14:04:06.523Z,10.73
2018-12-12T14:06:34.193Z,8.37
2018-12-12T14:09:01.727Z,8.37
2018-12-12T14:11:29.275Z,6.07
2018-12-12T14:13:57.035Z,8.17
2018-12-12T14:16:24.768Z,6.23
2018-12-12T14:18:52.484Z,8.00
2018-12-12T14:21:21.052Z,5.67
2018-12-12T14:23:48.571Z,8.47
2018-12-12T14:26:16.124Z,11.43
2018-12-12T14:28:43.675Z,10.50
2018-12-12T14:31:11.221Z,9.03
2018-12-12T14:33:38.743Z,9.83
2018-12-12T14:36:06.282Z,9.03
2018-12-12T14:38:33.860Z,11.00
2018-12-12T14:41:01.411Z,9.53
2018-12-12T14:43:28.939Z,18.90
2018-12-12T14:45:59.101Z,8.63
2018-12-12T14:48:30.333Z,17.57
2018-12-12T14:51:01.235Z,9.77
2018-12-12T14:53:28.884Z,9.77
2018-12-12T14:55:56.434Z,10.80
2018-12-12T14:58:24.042Z,7.97
2018-12-12T15:00:51.687Z,10.03
2018-12-12T15:03:20.039Z,10.63
2018-12-12T15:05:47.584Z,7.23
2018-12-12T15:08:15.187Z,6.53
2018-12-12T15:10:42.735Z,8.50
2018-12-12T15:13:10.263Z,6.00
2018-12-12T15:15:37.815Z,6.67
2018-12-12T15:18:05.351Z,5.87
2018-12-12T15:20:32.904Z,5.57
2018-12-12T15:23:00.422Z,4.90
2018-12-12T15:25:27.972Z,6.33
2018-12-12T15:27:55.499Z,10.10
2018-12-12T15:30:23.056Z,5.80
2018-12-12T15:32:50.585Z,5.93
2018-12-12T15:35:18.127Z,8.73
2018-12-12T15:37:45.652Z,10.90
2018-12-12T15:40:13.228Z,7.37
2018-12-12T15:42:40.756Z,6.33
2018-12-12T15:45:08.359Z,6.70
2018-12-12T15:47:36.091Z,8.37
2018-12-12T15:50:04.488Z,13.83
2018-12-12T15:52:32.068Z,5.43
2018-12-12T15:54:59.591Z,6.37
2018-12-12T15:57:27.138Z,8.70
2018-12-12T15:59:54.659Z,7.70
2018-12-12T16:02:22.208Z,9.33
2018-12-12T16:04:49.732Z,7.63
2018-12-12T16:07:17.290Z,10.30
2018-12-12T16:09:44.816Z,10.00
2018-12-12T16:12:12.380Z,12.28
2018-12-12T16:14:39.938Z,6.17
2018-12-12T16:17:07.488Z,11.60
2018-12-12T16:19:35.061Z,9.07
2018-12-12T16:22:02.620Z,8.80
2018-12-12T16:24:31.139Z,8.40
2018-12-12T16:26:58.716Z,9.70
2018-12-12T16:29:26.258Z,10.07
2018-12-12T16:31:53.807Z,11.20
2018-12-12T16:34:21.329Z,9.17
2018-12-12T16:36:48.887Z,10.90
2018-12-12T16:39:16.403Z,9.50
2018-12-12T16:41:43.955Z,48.23
2018-12-12T16:44:11.482Z,24.87
2018-12-12T16:46:39.031Z,14.13
2018-12-12T16:49:06.546Z,9.20
2018-12-12T16:51:34.108Z,10.80
2018-12-12T16:54:01.636Z,10.35
2018-12-12T16:56:29.191Z,19.25
2018-12-12T16:58:56.731Z,17.77
2018-12-12T17:01:24.296Z,230.92
2018-12-12T17:03:51.919Z,316.35
2018-12-12T17:06:19.563Z,65.65
2018-12-12T17:08:47.764Z,21.93
2018-12-12T17:11:15.330Z,15.83
2018-12-12T17:13:42.865Z,10.25
2018-12-12T17:16:10.415Z,8.35
2018-12-12T17:18:37.965Z,11.40
2018-12-12T17:21:05.794Z,7.78
2018-12-12T17:23:33.325Z,8.35
2018-12-12T17:26:00.848Z,9.33
2018-12-12T17:28:28.404Z,9.48
2018-12-12T17:30:55.927Z,12.93
2018-12-12T17:33:23.482Z,10.38
2018-12-12T17:35:51.112Z,9.13
2018-12-12T17:38:18.724Z,8.23
2018-12-12T17:40:46.279Z,9.20
2018-12-12T17:43:13.835Z,8.68
2018-12-12T17:45:41.471Z,9.68
2018-12-12T17:48:09.046Z,10.10
2018-12-12T17:50:36.576Z,11.70
2018-12-12T17:53:04.136Z,11.03
2018-12-12T17:55:31.713Z,10.23
2018-12-12T17:57:59.266Z,10.63
2018-12-12T18:00:26.799Z,10.00
2018-12-12T18:02:54.362Z,10.15
2018-12-12T18:05:21.903Z,9.75
2018-12-12T18:07:49.484Z,8.80
2018-12-12T18:10:17.023Z,10.25
2018-12-12T18:12:44.587Z,10.80
2018-12-12T18:15:12.115Z,8.68
2018-12-12T18:17:39.707Z,8.55
2018-12-12T18:20:07.323Z,9.50
2018-12-12T18:22:34.860Z,9.23
2018-12-12T18:25:02.406Z,11.60
2018-12-12T18:27:29.926Z,16.83
2018-12-12T18:29:57.476Z,13.27
2018-12-12T18:32:25.007Z,191.00
2018-12-12T18:34:52.563Z,75.33
2018-12-12T18:37:20.096Z,21.95
2018-12-12T18:39:47.664Z,118.73
2018-12-12T18:42:15.187Z,31.97
2018-12-12T18:44:42.736Z,9.40
2018-12-12T18:47:10.259Z,9.43
2018-12-12T18:49:37.824Z,78.83
2018-12-12T18:52:05.438Z,14.30
2018-12-12T18:54:32.987Z,10.33
2018-12-12T18:57:00.519Z,10.40
2018-12-12T18:59:28.359Z,9.93
2018-12-12T19:01:55.903Z,6.17
2018-12-12T19:04:23.461Z,9.43
2018-12-12T19:06:50.981Z,7.80
2018-12-12T19:09:18.523Z,7.63
2018-12-12T19:11:46.047Z,6.93
2018-12-12T19:14:13.618Z,7.43
2018-12-12T19:16:41.146Z,9.07
2018-12-12T19:19:08.716Z,10.80
2018-12-12T19:21:36.238Z,12.67
2018-12-12T19:24:04.152Z,9.43
2018-12-12T19:26:31.672Z,8.70
2018-12-12T19:28:59.199Z,8.57
2018-12-12T19:31:26.755Z,17.23
2018-12-12T19:33:54.283Z,6.93
2018-12-12T19:36:21.835Z,8.27
2018-12-12T19:38:49.370Z,13.60
2018-12-12T19:41:16.928Z,9.10
2018-12-12T19:43:44.450Z,9.40
2018-12-12T19:46:12.007Z,14.63
2018-12-12T19:48:39.527Z,10.03
2018-12-12T19:51:07.090Z,10.80
2018-12-12T19:53:34.627Z,17.83
2018-12-12T19:56:02.257Z,10.77
2018-12-12T19:58:29.791Z,10.13
2018-12-12T20:00:57.347Z,21.30
2018-12-12T20:03:24.950Z,11.60
2018-12-12T20:05:52.511Z,13.85
2018-12-12T20:08:20.027Z,14.00
2018-12-12T20:10:47.571Z,11.27
2018-12-12T20:13:15.100Z,7.73
2018-12-12T20:15:44.741Z,10.00
2018-12-12T20:18:12.268Z,15.23
2018-12-12T20:20:39.811Z,7.00
2018-12-12T20:23:07.345Z,7.57
2018-12-12T20:25:34.896Z,8.63
2018-12-12T20:28:02.419Z,8.93
2018-12-12T20:30:35.275Z,7.50
2018-12-12T20:32:59.512Z,6.03
2018-12-12T20:35:27.027Z,9.73
2018-12-12T20:37:54.600Z,7.27
2018-12-12T20:40:22.158Z,7.53
2018-12-12T20:42:49.723Z,8.68
2018-12-12T20:45:17.252Z,7.58
2018-12-12T20:47:44.825Z,5.92
2018-12-12T20:50:12.350Z,6.33
2018-12-12T20:52:40.021Z,5.93
2018-12-12T20:55:07.627Z,6.15
2018-12-12T20:57:35.179Z,7.13
2018-12-12T21:00:02.875Z,8.37
2018-12-12T21:02:30.420Z,6.83
2018-12-12T21:04:57.944Z,6.07
2018-12-12T21:07:25.499Z,7.77
2018-12-12T21:09:53.025Z,7.65
2018-12-12T21:12:20.589Z,5.85
2018-12-12T21:14:48.113Z,6.03
2018-12-12T21:17:15.664Z,5.17
2018-12-12T21:19:43.186Z,7.83
2018-12-12T21:22:10.735Z,5.53
2018-12-12T21:24:38.260Z,7.20
2018-12-12T21:27:05.805Z,6.40
2018-12-12T21:29:33.327Z,6.85
2018-12-12T21:32:00.876Z,7.75
2018-12-12T21:34:28.396Z,7.00
2018-12-12T21:36:55.952Z,5.92
2018-12-12T21:39:23.486Z,23.37
2018-12-12T21:41:51.042Z,51.77
2018-12-12T21:44:18.575Z,11.73
2018-12-12T21:46:46.129Z,6.17
2018-12-12T21:49:13.651Z,8.20
2018-12-12T21:51:41.199Z,7.17
2018-12-12T21:54:08.735Z,19.07
2018-12-12T21:56:36.282Z,14.40
2018-12-12T21:59:03.813Z,20.97
2018-12-12T22:01:31.341Z,20.90
2018-12-12T22:03:58.898Z,30.92
2018-12-12T22:06:26.503Z,54.08
2018-12-12T22:08:54.062Z,40.00
2018-12-12T22:11:21.583Z,8.08
2018-12-12T22:13:49.130Z,11.55
2018-12-12T22:16:16.647Z,6.58
2018-12-12T22:18:44.196Z,5.78
2018-12-12T22:21:11.719Z,15.40
2018-12-12T22:23:39.272Z,12.13
2018-12-12T22:26:06.810Z,24.70
2018-12-12T22:28:34.367Z,9.85
2018-12-12T22:31:01.892Z,9.58
2018-12-12T22:33:29.442Z,14.63
2018-12-12T22:35:56.962Z,8.93
2018-12-12T22:38:24.516Z,11.75
2018-12-12T22:40:52.048Z,68.67
2018-12-12T22:43:19.608Z,13.55
2018-12-12T22:45:47.222Z,54.20
2018-12-12T22:48:20.563Z,23.55
2018-12-12T22:50:44.504Z,15.03
2018-12-12T22:53:12.056Z,6.67
2018-12-12T22:55:39.584Z,52.90
2018-12-12T22:58:07.134Z,15.30
2018-12-12T23:00:35.748Z,19.23
2018-12-12T23:03:03.486Z,20.70
2018-12-12T23:05:31.020Z,25.75
2018-12-12T23:07:58.563Z,9.70
2018-12-12T23:10:26.087Z,21.90
2018-12-12T23:12:53.636Z,37.63
2018-12-12T23:15:21.158Z,56.65
2018-12-12T23:17:48.772Z,24.32
2018-12-12T23:20:16.296Z,7.83
2018-12-12T23:22:43.851Z,35.25
2018-12-12T23:25:11.375Z,12.33
2018-12-12T23:27:38.932Z,12.53
2018-12-12T23:30:07.820Z,12.37
2018-12-12T23:32:35.378Z,45.63
2018-12-12T23:35:02.992Z,21.50
2018-12-12T23:37:30.537Z,9.85
2018-12-12T23:39:58.063Z,12.00
2018-12-12T23:42:25.612Z,17.48
2018-12-12T23:44:53.131Z,39.10
2018-12-12T23:47:20.663Z,70.87
2018-12-12T23:49:48.324Z,25.15
2018-12-12T23:52:15.847Z,9.60
2018-12-12T23:54:43.399Z,10.98
2018-12-12T23:57:10.927Z,38.02
2018-12-12T23:59:38.476Z,62.30
